Time;durP1;ratioP1;P1;durP2;ratioP2;P2;SDS_P1;SDS_P2;PMS_P1;PMS_P2;Temp;Humidity;BMP_temperature;BMP_pressure;BME280_temperature;BME280_humidity;BME280_pressure;Samples;Min_cycle;Max_cycle;Signal;HPM_P1;HPM_P2
2021/08/24 00:00:31;;;;;;;24.20;14.55;;;;;;;14.74;91.84;99657.17;1743454;81;20964;-67
2021/08/24 00:02:59;;;;;;;17.23;11.38;;;;;;;14.72;91.95;99663.61;1747087;81;21148;-67
2021/08/24 00:05:33;;;;;;;21.00;12.33;;;;;;;14.70;92.23;99658.19;1744866;81;20996;-68
2021/08/24 00:08:08;;;;;;;18.35;11.85;;;;;;;14.70;92.39;99658.19;1746516;81;20944;-67
2021/08/24 00:10:55;;;;;;;19.87;11.15;;;;;;;14.71;92.37;99658.42;1742540;81;20938;-67
2021/08/24 00:13:26;;;;;;;19.77;11.45;;;;;;;14.71;92.42;99662.56;1735304;82;21056;-69
2021/08/24 00:16:01;;;;;;;18.67;11.08;;;;;;;14.70;92.64;99653.47;1728748;81;21440;-69
2021/08/24 00:18:32;;;;;;;;;;;;;;;14.70;92.74;99652.09;1735711;81;20885;-69
2021/08/24 00:20:59;;;;;;;16.40;10.75;;;;;;;14.71;92.84;99652.32;1743894;81;20408;-68
2021/08/24 00:23:34;;;;;;;17.40;10.32;;;;;;;14.72;92.96;99653.13;1731568;81;20897;-68
2021/08/24 00:26:02;;;;;;;14.85;10.63;;;;;;;14.75;92.98;99657.40;1747825;81;20901;-69
2021/08/24 00:28:33;;;;;;;22.00;11.33;;;;;;;14.79;92.98;99654.77;1750106;81;22058;-69
2021/08/24 00:31:03;;;;;;;20.52;11.70;;;;;;;14.81;93.01;99649.13;1745388;81;20971;-69
2021/08/24 00:33:32;;;;;;;17.95;10.70;;;;;;;14.84;92.92;99655.93;1747030;81;21059;-69
2021/08/24 00:36:02;;;;;;;20.37;10.68;;;;;;;14.88;92.94;99656.05;1736150;81;20903;-68
2021/08/24 00:38:35;;;;;;;21.40;11.03;;;;;;;14.90;92.75;99664.81;1748965;81;21403;-67
2021/08/24 00:41:08;;;;;;;15.23;10.58;;;;;;;14.88;92.35;99661.01;1725500;81;21483;-67
2021/08/24 00:43:37;;;;;;;21.48;11.15;;;;;;;14.86;92.29;99657.78;1747092;81;20884;-67
2021/08/24 00:46:30;;;;;;;17.95;10.80;;;;;;;14.85;92.38;99658.92;1745266;81;21463;-68
2021/08/24 00:49:23;;;;;;;16.70;11.48;;;;;;;14.83;92.51;99654.31;1744481;81;20869;-68
2021/08/24 00:52:11;;;;;;;17.45;11.08;;;;;;;14.81;92.84;99653.27;1737685;81;20978;-67
2021/08/24 00:54:41;;;;;;;20.27;11.10;;;;;;;14.79;93.17;99661.09;1746617;81;21101;-67
2021/08/24 00:57:23;;;;;;;17.40;11.40;;;;;;;14.81;93.28;99657.99;1747883;81;21395;-68
2021/08/24 00:59:55;;;;;;;18.05;11.10;;;;;;;14.81;93.11;99664.33;1747175;81;20984;-67
2021/08/24 01:02:25;;;;;;;21.30;11.08;;;;;;;14.83;92.97;99659.27;1735341;81;21478;-67
2021/08/24 01:04:52;;;;;;;15.78;10.88;;;;;;;14.85;92.75;99656.16;1741599;81;21065;-67
2021/08/24 01:07:42;;;;;;;21.75;11.60;;;;;;;14.90;92.50;99653.76;1748832;81;21133;-67
2021/08/24 01:10:28;;;;;;;16.73;11.40;;;;;;;14.95;91.73;99657.11;1750953;81;20916;-67
2021/08/24 01:13:16;;;;;;;21.07;11.20;;;;;;;15.01;91.68;99652.98;1709692;81;20841;-67
2021/08/24 01:16:01;;;;;;;19.20;11.85;;;;;;;15.05;91.70;99652.50;1734047;82;21033;-68
2021/08/24 01:19:13;;;;;;;20.35;11.12;;;;;;;15.03;91.70;99645.13;1745234;81;20904;-67
2021/08/24 01:22:26;;;;;;;18.02;11.70;;;;;;;15.02;92.02;99644.11;1742653;81;21121;-67
2021/08/24 01:25:09;;;;;;;25.15;11.78;;;;;;;15.02;92.15;99644.11;1729448;81;21000;-67
2021/08/24 01:27:47;;;;;;;19.35;12.28;;;;;;;15.00;92.30;99638.92;1729813;81;21026;-67
2021/08/24 01:30:33;;;;;;;18.15;11.70;;;;;;;14.98;92.44;99634.89;1740383;81;22326;-67
2021/08/24 01:33:31;;;;;;;22.93;12.80;;;;;;;14.94;92.58;99635.34;1746126;81;20908;-66
2021/08/24 01:36:23;;;;;;;21.75;12.18;;;;;;;14.90;92.70;99631.07;1727803;81;20995;-66
2021/08/24 01:39:08;;;;;;;22.15;12.85;;;;;;;14.86;92.84;99634.28;1749445;82;20944;-66
2021/08/24 01:42:24;;;;;;;25.12;12.53;;;;;;;14.83;92.79;99628.06;1747767;81;21089;-66
2021/08/24 01:45:11;;;;;;;24.87;12.65;;;;;;;14.80;92.96;99625.41;1745739;81;21974;-68
2021/08/24 01:47:48;;;;;;;19.45;11.97;;;;;;;14.77;92.98;99623.33;1743219;81;21407;-67
2021/08/24 01:50:45;;;;;;;21.07;12.47;;;;;;;14.74;92.88;99619.05;1746302;81;20881;-67
2021/08/24 01:53:35;;;;;;;23.70;11.40;;;;;;;14.70;92.86;99618.93;1747849;81;21063;-69
2021/08/24 01:56:12;;;;;;;22.02;12.73;;;;;;;14.66;92.73;99613.85;1745801;81;21057;-68
2021/08/24 01:58:48;;;;;;;22.42;13.40;;;;;;;14.63;92.82;99609.58;1747641;81;21455;-68
2021/08/24 02:01:23;;;;;;;22.55;13.03;;;;;;;14.61;92.98;99611.87;1729480;82;21534;-68
2021/08/24 02:04:02;;;;;;;25.77;12.63;;;;;;;14.59;93.07;99605.89;1748818;81;20972;-67
2021/08/24 02:06:39;;;;;;;24.30;13.60;;;;;;;14.59;93.14;99603.93;1745354;80;20924;-69
2021/08/24 02:09:10;;;;;;;19.45;12.95;;;;;;;14.56;93.11;99600.47;1746781;81;20920;-68
2021/08/24 02:11:44;;;;;;;19.57;13.13;;;;;;;14.57;92.98;99605.42;1728629;81;20936;-68
2021/08/24 02:14:14;;;;;;;23.95;13.03;;;;;;;14.54;92.83;99601.38;1742337;80;20904;-67
2021/08/24 02:16:44;;;;;;;25.00;13.30;;;;;;;14.50;92.89;99606.78;1749290;81;21789;-67
2021/08/24 02:19:25;;;;;;;20.17;13.25;;;;;;;14.48;92.96;99607.69;1738750;81;21003;-66
2021/08/24 02:22:05;;;;;;;26.07;13.85;;;;;;;14.48;92.98;99606.31;1744354;81;20921;-66
2021/08/24 02:24:50;;;;;;;21.82;13.22;;;;;;;14.45;92.84;99600.09;1722318;82;20928;-67
2021/08/24 02:27:29;;;;;;;21.68;13.03;;;;;;;14.46;92.82;99601.70;1732215;81;20923;-66
2021/08/24 02:30:06;;;;;;;28.90;17.00;;;;;;;14.50;92.26;99599.88;1734476;81;20963;-68
2021/08/24 02:32:38;;;;;;;24.00;15.32;;;;;;;14.57;91.27;99593.80;1737020;81;20954;-68
2021/08/24 02:35:22;;;;;;;28.67;14.98;;;;;;;14.64;90.72;99587.71;1733046;81;20884;-68
2021/08/24 02:38:08;;;;;;;23.80;14.83;;;;;;;14.68;90.16;99590.03;1748241;81;21898;-68
2021/08/24 02:41:00;;;;;;;26.20;14.43;;;;;;;14.72;89.93;99595.10;1750224;81;20967;-67
2021/08/24 02:43:51;;;;;;;24.60;15.08;;;;;;;14.70;89.44;99589.11;1728064;82;21416;-68
2021/08/24 02:46:24;;;;;;;26.95;15.08;;;;;;;14.67;88.89;99587.84;1735442;81;20940;-66
2021/08/24 02:48:56;;;;;;;;;;;;;;;14.65;88.63;99587.38;1746203;81;20892;-67
2021/08/24 02:51:29;;;;;;;26.93;16.40;;;;;;;14.63;88.53;99588.86;1742433;81;20114;-68
2021/08/24 02:54:28;;;;;;;28.87;15.90;;;;;;;14.58;88.58;99585.73;1691486;81;21077;-68
2021/08/24 02:57:00;;;;;;;29.42;16.85;;;;;;;14.56;88.67;99576.17;1742217;81;21139;-66
2021/08/24 02:59:29;;;;;;;28.55;16.67;;;;;;;14.52;88.63;99576.86;1746514;81;21022;-67
2021/08/24 03:02:06;;;;;;;29.85;16.45;;;;;;;14.51;88.46;99580.77;1749027;81;20886;-66
2021/08/24 03:04:37;;;;;;;28.02;15.55;;;;;;;14.50;88.49;99583.30;1749389;81;21022;-66
2021/08/24 03:07:17;;;;;;;26.85;15.65;;;;;;;14.48;88.56;99581.45;1744527;81;21043;-67
2021/08/24 03:09:50;;;;;;;24.43;15.58;;;;;;;14.45;88.86;99577.98;1748639;81;21044;-67
2021/08/24 03:12:45;;;;;;;25.17;16.25;;;;;;;14.44;89.35;99572.23;1745570;81;21645;-66
2021/08/24 03:15:28;;;;;;;35.17;15.65;;;;;;;14.41;89.66;99581.23;1753141;80;20984;-67
2021/08/24 03:18:08;;;;;;;26.82;15.80;;;;;;;14.38;89.97;99582.45;1759909;80;20983;-66
2021/08/24 03:20:46;;;;;;;27.57;15.43;;;;;;;14.32;90.45;99587.38;1745549;80;21054;-66
2021/08/24 03:23:13;;;;;;;30.30;16.62;;;;;;;14.26;90.75;99583.78;1765933;80;21176;-65
2021/08/24 03:25:46;;;;;;;26.60;16.05;;;;;;;14.20;91.15;99581.80;1756688;80;20953;-65
2021/08/24 03:28:16;;;;;;;28.98;16.62;;;;;;;14.18;91.56;99582.71;1754139;81;21086;-65
2021/08/24 03:30:47;;;;;;;36.40;18.00;;;;;;;14.16;91.64;99583.05;1768311;80;20947;-65
2021/08/24 03:33:25;;;;;;;26.35;16.37;;;;;;;14.14;91.91;99588.10;1757424;80;21486;-66
2021/08/24 03:35:47;;;;;;;29.12;17.57;;;;;;;14.17;91.91;99588.00;1713792;82;21817;-65
2021/08/24 03:38:22;;;;;;;27.95;16.50;;;;;;;14.17;91.88;99584.67;1731794;81;21566;-67
2021/08/24 03:40:49;;;;;;;26.77;16.90;;;;;;;14.19;91.93;99584.33;1749145;81;20945;-66
2021/08/24 03:43:21;;;;;;;27.42;16.80;;;;;;;14.21;91.82;99586.98;1766405;80;20955;-65
2021/08/24 03:45:50;;;;;;;31.60;17.32;;;;;;;14.22;91.82;99585.03;1759683;80;21387;-67
2021/08/24 03:48:23;;;;;;;33.98;18.55;;;;;;;14.23;91.89;99581.13;1760948;80;21486;-67
2021/08/24 03:50:51;;;;;;;31.50;17.60;;;;;;;14.27;91.76;99586.78;1774803;80;21455;-66
2021/08/24 03:53:20;;;;;;;28.83;17.55;;;;;;;14.31;91.64;99588.52;1726487;81;21164;-64
2021/08/24 03:55:52;;;;;;;29.12;17.40;;;;;;;14.35;91.65;99585.31;1717951;81;20980;-64
2021/08/24 03:58:19;;;;;;;34.65;18.30;;;;;;;14.42;91.39;99587.56;1769269;80;21432;-65
2021/08/24 04:00:54;;;;;;;36.65;18.85;;;;;;;14.48;91.07;99582.83;1767348;80;21083;-64
2021/08/24 04:03:22;;;;;;;31.50;18.05;;;;;;;14.53;90.89;99584.00;1752770;80;20974;-65
2021/08/24 04:06:02;;;;;;;31.20;18.65;;;;;;;14.60;90.39;99585.40;1752125;80;20940;-66
2021/08/24 04:08:33;;;;;;;33.83;17.85;;;;;;;14.67;90.27;99591.98;1745135;80;20972;-67
2021/08/24 04:11:07;;;;;;;30.65;18.25;;;;;;;14.77;90.52;99587.97;1726792;81;20892;-64
2021/08/24 04:13:40;;;;;;;33.73;18.25;;;;;;;14.85;90.74;99589.83;1776816;80;21204;-64
2021/08/24 04:16:11;;;;;;;29.82;18.42;;;;;;;14.92;89.72;99594.22;1745577;80;21368;-64
2021/08/24 04:18:41;;;;;;;31.33;18.02;;;;;;;14.99;88.93;99593.08;1760590;80;20904;-68
2021/08/24 04:21:13;;;;;;;30.17;17.55;;;;;;;15.09;88.33;99590.41;1738676;81;20948;-67
2021/08/24 04:23:43;;;;;;;29.55;18.05;;;;;;;15.16;88.18;99594.22;1727897;81;20975;-69
2021/08/24 04:26:15;;;;;;;30.20;16.85;;;;;;;15.25;87.83;99598.26;1720620;82;21145;-68
2021/08/24 04:28:45;;;;;;;33.48;19.17;;;;;;;15.34;87.49;99594.00;1725966;81;21002;-68
2021/08/24 04:31:16;;;;;;;30.35;17.62;;;;;;;15.42;87.04;99602.17;1737614;82;21020;-69
2021/08/24 04:33:45;;;;;;;33.18;16.90;;;;;;;15.52;86.15;99603.67;1716580;80;21023;-70
2021/08/24 04:36:16;;;;;;;27.62;17.52;;;;;;;15.60;86.07;99602.74;1763943;80;21466;-69
2021/08/24 04:38:45;;;;;;;30.70;17.85;;;;;;;15.69;85.66;99606.19;1773733;80;21123;-69
2021/08/24 04:41:15;;;;;;;32.20;18.48;;;;;;;15.78;84.95;99604.68;1772054;80;21502;-69
2021/08/24 04:43:52;;;;;;;29.35;17.65;;;;;;;15.87;84.76;99607.31;1706101;82;20885;-70
2021/08/24 04:46:20;;;;;;;;;;;;;;;15.97;84.16;99603.48;1726972;82;20885;-70
2021/08/24 04:48:52;;;;;;;34.35;17.12;;;;;;;16.08;84.13;99599.66;1720381;82;20473;-69
2021/08/24 04:51:23;;;;;;;32.80;16.77;;;;;;;16.19;83.94;99604.89;1700514;82;21569;-69
2021/08/24 04:53:53;;;;;;;30.77;17.10;;;;;;;16.30;82.80;99596.31;1711588;83;21013;-69
2021/08/24 04:56:30;;;;;;;29.40;16.52;;;;;;;16.43;82.60;99594.30;1696399;83;20939;-69
2021/08/24 04:59:05;;;;;;;27.52;16.40;;;;;;;16.67;80.70;99600.34;1751776;80;21463;-70
2021/08/24 05:01:39;;;;;;;24.35;14.83;;;;;;;16.67;80.70;99600.34;1764004;80;21486;-69
2021/08/24 05:04:09;;;;;;;25.48;14.83;;;;;;;16.83;80.38;99598.36;1729564;80;21498;-70
2021/08/24 05:06:40;;;;;;;26.30;14.93;;;;;;;16.97;79.50;99594.58;1749829;80;20946;-71
2021/08/24 05:09:14;;;;;;;27.35;15.83;;;;;;;17.11;78.00;99594.94;1739512;81;21415;-71
2021/08/24 05:11:43;;;;;;;;;;;;;;;17.24;76.66;99595.66;1735440;80;21467;-67
2021/08/24 05:14:09;;;;;;;23.47;13.70;;;;;;;17.35;76.79;99595.30;1754977;80;20085;-67
2021/08/24 05:16:40;;;;;;;31.27;15.72;;;;;;;17.47;76.66;99590.23;1738656;81;20928;-68
2021/08/24 05:19:10;;;;;;;26.37;14.25;;;;;;;17.60;75.52;99597.87;1748961;81;20899;-71
2021/08/24 05:21:41;;;;;;;20.30;13.43;;;;;;;17.72;73.77;99597.78;1754993;80;20912;-72
2021/08/24 05:24:21;;;;;;;23.35;13.75;;;;;;;17.86;73.32;99598.69;1775923;80;20944;-73
2021/08/24 05:26:44;;;;;;;24.07;13.18;;;;;;;17.99;71.81;99598.75;1758737;80;20916;-70
2021/08/24 05:29:16;;;;;;;18.98;11.40;;;;;;;18.15;71.48;99590.58;1767725;80;21156;-70
2021/08/24 05:31:45;;;;;;;21.35;11.73;;;;;;;18.32;69.56;99591.31;1772463;80;21548;-70
2021/08/24 05:34:17;;;;;;;20.37;12.20;;;;;;;18.43;68.89;99584.80;1770741;80;21021;-71
2021/08/24 05:36:46;;;;;;;20.80;11.53;;;;;;;18.58;67.57;99587.83;1736626;80;21655;-77
2021/08/24 05:39:16;;;;;;;22.98;12.60;;;;;;;18.75;67.50;99592.36;1731912;81;21767;-75
2021/08/24 05:41:47;;;;;;;18.82;10.28;;;;;;;18.92;68.11;99594.45;1727883;81;21993;-70
2021/08/24 05:44:15;;;;;;;17.62;9.63;;;;;;;19.11;65.74;99592.97;1710688;81;21565;-73
2021/08/24 05:46:50;;;;;;;15.23;8.63;;;;;;;19.25;65.21;99590.43;1731924;81;20952;-71
2021/08/24 05:49:22;;;;;;;16.15;9.08;;;;;;;19.39;64.05;99594.03;1758119;80;21529;-72
2021/08/24 05:51:51;;;;;;;15.90;10.05;;;;;;;19.50;62.79;99590.83;1747799;80;20942;-70
2021/08/24 05:54:20;;;;;;;14.07;9.63;;;;;;;19.62;63.01;99587.06;1742766;80;20944;-70
2021/08/24 05:56:52;;;;;;;17.87;10.05;;;;;;;19.77;62.62;99597.20;1741560;80;21017;-71
2021/08/24 05:59:25;;;;;;;19.32;9.83;;;;;;;19.96;61.93;99589.31;1734800;80;21104;-72
2021/08/24 06:02:01;;;;;;;18.35;9.50;;;;;;;20.18;61.70;99588.41;1735761;80;21017;-74
2021/08/24 06:04:34;;;;;;;18.02;10.28;;;;;;;20.42;60.78;99581.54;1744900;81;21097;-73
2021/08/24 06:07:09;;;;;;;17.20;9.35;;;;;;;20.56;58.58;99589.27;1747025;80;22083;-72
2021/08/24 06:09:44;;;;;;;16.02;9.85;;;;;;;20.53;58.71;99585.25;1739084;81;21042;-72
2021/08/24 06:12:15;;;;;;;18.60;9.58;;;;;;;20.46;59.68;99582.38;1744772;80;21035;-71
2021/08/24 06:14:56;;;;;;;14.97;8.90;;;;;;;20.43;59.63;99584.54;1733821;80;21085;-69
2021/08/24 06:17:19;;;;;;;14.40;8.73;;;;;;;20.37;59.07;99586.83;1736490;81;21962;-72
2021/08/24 06:19:49;;;;;;;15.68;9.38;;;;;;;20.36;58.59;99583.83;1753734;80;21162;-74
2021/08/24 06:22:17;;;;;;;15.68;8.83;;;;;;;20.38;58.95;99589.86;1737703;80;21031;-73
2021/08/24 06:24:46;;;;;;;17.77;9.60;;;;;;;20.44;59.24;99588.94;1739698;80;21528;-72
2021/08/24 06:27:16;;;;;;;14.95;8.63;;;;;;;20.50;57.92;99593.58;1740892;80;21008;-68
2021/08/24 06:29:51;;;;;;;11.83;8.37;;;;;;;20.54;57.31;99588.25;1751014;80;21044;-70
2021/08/24 06:32:36;;;;;;;;;;;;;;;20.63;57.60;99577.59;1738354;80;20923;-71
2021/08/24 06:35:06;;;;;;;14.95;8.83;;;;;;;20.76;56.38;99577.53;1738909;80;20095;-71
2021/08/24 06:37:43;;;;;;;16.37;8.83;;;;;;;20.95;56.34;99572.31;1741900;80;20971;-73
2021/08/24 06:40:15;;;;;;;15.95;8.28;;;;;;;21.15;54.66;99577.67;1718614;80;21701;-71
2021/08/24 06:42:46;;;;;;;15.78;8.03;;;;;;;21.31;54.88;99578.23;1735142;80;21356;-71
2021/08/24 06:45:26;;;;;;;17.02;9.13;;;;;;;21.41;54.28;99573.30;1742662;80;21162;-71
2021/08/24 06:48:04;;;;;;;13.55;8.38;;;;;;;21.48;54.67;99570.56;1747101;80;21015;-71
2021/08/24 06:50:32;;;;;;;20.65;8.03;;;;;;;21.60;55.04;99569.44;1716032;80;20997;-69
2021/08/24 06:53:06;;;;;;;13.57;6.70;;;;;;;21.78;53.41;99570.36;1720223;81;21019;-69
2021/08/24 06:55:39;;;;;;;10.75;6.58;;;;;;;21.90;53.24;99567.83;1738654;81;21040;-69
2021/08/24 06:58:09;;;;;;;20.85;7.60;;;;;;;22.01;51.67;99563.06;1747599;81;21147;-69
2021/08/24 07:00:42;;;;;;;11.80;6.58;;;;;;;22.12;52.31;99563.15;1744697;81;20952;-69
2021/08/24 07:03:14;;;;;;;9.40;6.17;;;;;;;22.21;52.11;99556.00;1713812;81;21551;-69
2021/08/24 07:05:49;;;;;;;12.65;6.55;;;;;;;22.34;50.58;99553.05;1748864;81;21396;-70
2021/08/24 07:08:18;;;;;;;10.30;6.45;;;;;;;22.48;48.89;99552.89;1746242;81;21496;-72
2021/08/24 07:10:49;;;;;;;10.88;5.53;;;;;;;22.59;49.84;99555.09;1745228;81;21730;-73
2021/08/24 07:13:21;;;;;;;7.78;4.80;;;;;;;22.73;49.35;99550.92;1724000;81;20996;-67
2021/08/24 07:15:52;;;;;;;8.90;5.25;;;;;;;22.84;47.57;99550.38;1750387;81;20892;-68
2021/08/24 07:18:24;;;;;;;9.23;5.40;;;;;;;22.94;47.16;99550.98;1749076;81;20905;-72
2021/08/24 07:20:58;;;;;;;8.45;4.95;;;;;;;23.04;47.29;99557.19;1745132;81;20888;-73
2021/08/24 07:23:31;;;;;;;8.60;4.40;;;;;;;23.16;47.43;99550.97;1729949;81;20941;-68
2021/08/24 07:26:02;;;;;;;7.72;5.10;;;;;;;23.30;45.35;99551.77;1743493;82;20849;-68
2021/08/24 07:28:30;;;;;;;12.07;5.45;;;;;;;23.45;45.42;99555.95;1747621;81;20964;-73
2021/08/24 07:31:00;;;;;;;12.45;4.90;;;;;;;23.53;46.25;99546.34;1727616;81;21529;-73
2021/08/24 07:33:28;;;;;;;10.93;5.53;;;;;;;23.62;43.14;99548.95;1748772;81;20987;-74
2021/08/24 07:35:57;;;;;;;12.88;5.03;;;;;;;23.62;43.11;99550.36;1749211;81;21156;-74
2021/08/24 07:38:30;;;;;;;10.25;4.83;;;;;;;23.65;43.14;99556.55;1744961;81;20915;-73
2021/08/24 07:41:01;;;;;;;8.77;4.97;;;;;;;23.67;43.29;99551.34;1744147;81;20892;-72
2021/08/24 07:43:32;;;;;;;8.18;5.08;;;;;;;23.69;43.87;99550.31;1742559;81;20995;-74
2021/08/24 07:46:03;;;;;;;6.65;4.17;;;;;;;23.75;42.94;99556.91;1745135;82;20932;-74
2021/08/24 07:48:39;;;;;;;8.20;4.58;;;;;;;23.78;42.28;99558.91;1743102;81;21778;-75
2021/08/24 07:51:08;;;;;;;11.45;5.08;;;;;;;23.86;43.58;99555.67;1735599;81;20888;-75
2021/08/24 07:53:39;;;;;;;10.55;5.08;;;;;;;24.04;42.21;99553.62;1746928;81;20987;-75
2021/08/24 07:56:11;;;;;;;9.33;4.87;;;;;;;24.32;40.47;99552.70;1745201;81;20943;-75
2021/08/24 07:58:43;;;;;;;23.18;10.72;;;;;;;24.60;40.93;99548.14;1730740;81;21439;-75
2021/08/24 08:01:11;;;;;;;10.82;4.80;;;;;;;25.06;42.23;99550.64;1745317;81;21557;-75
2021/08/24 08:03:48;;;;;;;6.10;4.08;;;;;;;25.75;39.08;99557.24;1720120;82;21003;-74
2021/08/24 08:06:18;;;;;;;10.72;5.40;;;;;;;25.97;37.40;99563.62;1726220;82;21463;-75
2021/08/24 08:08:50;;;;;;;11.30;4.62;;;;;;;25.96;38.68;99552.18;1744601;81;20892;-74
2021/08/24 08:11:18;;;;;;;9.58;3.87;;;;;;;26.00;37.64;99550.70;1738914;81;20853;-74
2021/08/24 08:13:53;;;;;;;6.67;4.08;;;;;;;26.05;37.36;99561.50;1746793;81;20877;-75
2021/08/24 08:16:24;;;;;;;11.93;4.72;;;;;;;26.15;38.09;99552.73;1744500;81;20876;-74
2021/08/24 08:18:54;;;;;;;7.55;4.72;;;;;;;26.23;37.20;99551.44;1743367;81;20963;-74
2021/08/24 08:21:22;;;;;;;10.45;4.87;;;;;;;26.23;38.17;99545.20;1744573;81;20932;-74
2021/08/24 08:24:00;;;;;;;9.25;4.42;;;;;;;26.32;37.17;99539.09;1731677;81;21549;-74
2021/08/24 08:26:25;;;;;;;9.13;4.37;;;;;;;26.37;38.06;99538.62;1746234;81;21125;-73
2021/08/24 08:28:58;;;;;;;10.93;5.17;;;;;;;26.43;37.81;99531.30;1744787;81;21495;-74
2021/08/24 08:31:27;;;;;;;;;;;;;;;26.50;37.69;99531.81;1735791;80;21471;-73
2021/08/24 08:33:55;;;;;;;12.33;4.67;;;;;;;26.65;37.42;99527.54;1750036;81;20373;-74
2021/08/24 08:36:27;;;;;;;8.60;4.78;;;;;;;26.78;35.70;99522.92;1748900;81;21420;-74
2021/08/24 08:39:01;;;;;;;8.35;4.62;;;;;;;26.76;36.43;99523.95;1747510;81;20967;-73
2021/08/24 08:41:35;;;;;;;7.30;3.87;;;;;;;26.65;36.21;99522.70;1751425;81;28234;-73
2021/08/24 08:44:09;;;;;;;10.72;4.47;;;;;;;26.42;37.25;99526.09;1737922;81;21031;-74
2021/08/24 08:47:11;;;;;;;12.60;5.03;;;;;;;26.28;36.76;99523.63;1741429;80;21493;-75
2021/08/24 08:50:00;;;;;;;9.18;4.50;;;;;;;26.18;35.95;99518.94;1733414;80;21007;-74
2021/08/24 08:52:49;;;;;;;9.83;4.65;;;;;;;26.12;37.76;99522.02;1733495;81;21055;-75
2021/08/24 08:55:44;;;;;;;10.55;4.33;;;;;;;26.12;37.01;99510.77;1742463;81;21030;-75
2021/08/24 08:58:34;;;;;;;6.90;4.10;;;;;;;26.06;37.28;99515.27;1709654;82;21415;-74
2021/08/24 09:01:22;;;;;;;12.43;4.40;;;;;;;26.05;37.56;99516.48;1707014;82;21377;-74
2021/08/24 09:04:29;;;;;;;8.20;3.83;;;;;;;26.00;36.65;99517.75;1719777;81;36386;-74
2021/08/24 09:07:04;;;;;;;7.80;3.75;;;;;;;25.89;36.33;99506.47;1745142;82;22114;-74
2021/08/24 09:09:35;;;;;;;11.00;4.08;;;;;;;25.78;36.58;99505.80;1745507;82;21160;-75
2021/08/24 09:12:05;;;;;;;8.95;4.50;;;;;;;25.77;36.73;99509.83;1745296;82;21069;-74
2021/08/24 09:14:54;;;;;;;12.40;4.28;;;;;;;25.79;37.45;99503.97;1721560;82;21022;-74
2021/08/24 09:17:38;;;;;;;8.10;3.52;;;;;;;25.90;35.88;99503.84;1744444;81;21098;-74
2021/08/24 09:20:28;;;;;;;9.08;3.35;;;;;;;25.99;35.60;99505.55;1748690;81;21148;-75
2021/08/24 09:23:02;;;;;;;8.98;3.45;;;;;;;26.17;35.32;99499.05;1664645;84;21113;-75
2021/08/24 09:26:20;;;;;;;5.67;3.47;;;;;;;26.44;34.38;99486.45;1720577;81;20938;-75
2021/08/24 09:28:56;;;;;;;10.80;4.00;;;;;;;26.52;33.84;99478.70;1752700;80;21030;-74
2021/08/24 09:31:23;;;;;;;8.05;4.03;;;;;;;26.69;34.31;99473.38;1727510;82;20991;-73
2021/08/24 09:33:56;;;;;;;14.20;4.28;;;;;;;26.79;34.03;99476.64;1764816;80;21515;-74
2021/08/24 09:36:27;;;;;;;13.55;4.25;;;;;;;26.76;33.84;99474.67;1769799;80;21494;-74
2021/08/24 09:39:01;;;;;;;19.45;4.72;;;;;;;26.77;33.14;99472.05;1768400;80;21028;-75
2021/08/24 09:41:37;;;;;;;7.15;3.65;;;;;;;26.90;33.44;99468.81;1759806;80;21024;-75
2021/08/24 09:44:28;;;;;;;8.58;3.67;;;;;;;27.27;33.29;99475.42;1776723;80;21493;-75
2021/08/24 09:47:10;;;;;;;7.70;3.80;;;;;;;27.70;32.03;99459.13;1763196;80;21499;-75
2021/08/24 09:49:43;;;;;;;10.03;4.05;;;;;;;28.10;31.20;99449.38;1751358;80;20996;-75
2021/08/24 09:52:16;;;;;;;8.88;3.92;;;;;;;28.38;31.72;99464.09;1757066;80;20972;-75
2021/08/24 09:54:58;;;;;;;12.28;4.22;;;;;;;28.39;28.54;99468.51;1726260;80;21016;-74
2021/08/24 09:57:29;;;;;;;;;;;;;;;28.29;32.03;99468.16;1760163;80;21371;-74
2021/08/24 10:00:06;;;;;;;6.50;3.35;;;;;;;28.21;30.27;99466.08;1752121;80;21787;-74
2021/08/24 10:02:41;;;;;;;6.75;3.33;;;;;;;28.02;30.02;99468.31;1762566;80;20885;-74
2021/08/24 10:05:24;;;;;;;6.30;2.95;;;;;;;27.88;30.64;99470.20;1761429;80;20920;-75
2021/08/24 10:07:55;;;;;;;15.63;4.25;;;;;;;27.87;30.42;99470.64;1760648;80;21003;-72
2021/08/24 10:10:38;;;;;;;12.85;3.17;;;;;;;27.90;31.08;99457.08;1733992;81;21486;-72
2021/08/24 10:13:42;;;;;;;12.65;3.47;;;;;;;28.19;31.86;99456.64;1757375;80;21131;-75
2021/08/24 10:16:29;;;;;;;8.60;3.05;;;;;;;28.42;30.08;99465.60;1702352;83;21026;-75
2021/08/24 10:19:22;;;;;;;5.20;2.90;;;;;;;28.52;30.31;99459.53;1663443;85;21079;-75
2021/08/24 10:22:06;;;;;;;7.83;2.87;;;;;;;28.72;29.80;99453.81;1685115;83;21088;-75
2021/08/24 10:24:42;;;;;;;5.03;2.67;;;;;;;28.95;29.36;99456.46;1723780;82;21522;-75
2021/08/24 10:27:34;;;;;;;6.00;3.02;;;;;;;29.02;29.40;99451.24;1762047;80;21076;-75
2021/08/24 10:30:14;;;;;;;6.45;2.60;;;;;;;29.16;29.08;99436.74;1754190;80;21565;-75
2021/08/24 10:32:58;;;;;;;5.92;2.50;;;;;;;29.38;29.50;99436.34;1763036;81;20993;-75
2021/08/24 10:35:27;;;;;;;13.27;3.00;;;;;;;29.51;30.12;99435.77;1746875;80;21018;-73
2021/08/24 10:37:57;;;;;;;9.28;3.08;;;;;;;29.42;28.13;99434.24;1767526;80;21537;-73
2021/08/24 10:40:44;;;;;;;5.53;2.75;;;;;;;29.05;28.61;99437.64;1734587;80;21167;-73
2021/08/24 10:43:19;;;;;;;3.72;2.92;;;;;;;28.62;29.06;99433.06;1754241;80;21578;-72
2021/08/24 10:46:07;;;;;;;4.92;2.37;;;;;;;28.48;30.17;99431.38;1756595;80;21026;-73
2021/08/24 10:48:36;;;;;;;3.85;2.40;;;;;;;28.54;28.92;99429.62;1759148;81;20973;-73
2021/08/24 10:51:44;;;;;;;10.50;3.42;;;;;;;28.69;29.39;99425.83;1753324;80;21494;-76
2021/08/24 10:54:38;;;;;;;6.42;2.90;;;;;;;28.92;29.52;99421.41;1760364;81;21022;-75
2021/08/24 10:57:30;;;;;;;12.25;3.20;;;;;;;29.13;28.37;99414.41;1734551;80;20924;-75
2021/08/24 11:00:22;;;;;;;5.58;3.00;;;;;;;29.25;28.54;99411.46;1734524;80;21260;-75
2021/08/24 11:03:26;;;;;;;4.00;2.90;;;;;;;29.28;29.04;99423.91;1760558;80;20919;-75
2021/08/24 11:06:14;;;;;;;8.70;3.05;;;;;;;29.02;27.94;99420.16;1714772;82;21015;-75
2021/08/24 11:09:10;;;;;;;5.10;2.60;;;;;;;28.65;28.96;99418.06;1703996;83;21559;-75
2021/08/24 11:12:00;;;;;;;4.65;2.70;;;;;;;28.63;29.68;99416.30;1697752;83;21020;-76
2021/08/24 11:14:52;;;;;;;6.08;2.55;;;;;;;28.91;29.01;99419.81;1729321;81;21015;-76
2021/08/24 11:17:42;;;;;;;13.00;2.83;;;;;;;29.12;28.81;99420.50;1728079;81;20987;-75
2021/08/24 11:20:25;;;;;;;5.58;2.90;;;;;;;29.36;28.78;99416.82;1760313;81;20915;-72
2021/08/24 11:23:39;;;;;;;5.05;3.27;;;;;;;29.60;27.68;99404.63;1761192;81;22134;-73
2021/08/24 11:26:34;;;;;;;7.10;3.10;;;;;;;29.59;27.26;99420.81;1732289;80;21704;-73
2021/08/24 11:29:23;;;;;;;6.67;2.90;;;;;;;29.41;28.50;99404.38;1711222;82;21063;-73
2021/08/24 11:32:33;;;;;;;9.53;3.27;;;;;;;29.36;28.71;99407.72;1719550;81;21019;-75
2021/08/24 11:35:13;;;;;;;3.42;2.52;;;;;;;29.09;28.74;99407.25;1707036;84;21136;-74
2021/08/24 11:37:57;;;;;;;9.80;3.70;;;;;;;28.98;29.49;99405.33;1719364;81;21150;-74
2021/08/24 11:40:46;;;;;;;4.55;2.98;;;;;;;28.95;29.84;99413.28;1695515;81;20982;-74
2021/08/24 11:43:47;;;;;;;6.33;2.65;;;;;;;29.00;28.56;99406.48;1739280;80;21023;-74
2021/08/24 11:46:30;;;;;;;3.72;2.98;;;;;;;29.23;27.85;99401.22;1738988;80;21116;-75
2021/08/24 11:49:17;;;;;;;5.58;3.30;;;;;;;29.26;28.23;99400.33;1729691;80;21067;-74
2021/08/24 11:51:51;;;;;;;5.92;3.08;;;;;;;29.21;28.59;99398.05;1747989;80;21079;-72
2021/08/24 11:54:57;;;;;;;8.35;2.90;;;;;;;29.05;28.01;99402.31;1689036;83;20949;-73
2021/08/24 11:57:40;;;;;;;9.93;3.17;;;;;;;28.85;28.01;99393.98;1691412;84;21011;-73
2021/08/24 12:00:14;;;;;;;10.20;3.35;;;;;;;28.85;28.93;99386.30;1661913;83;20912;-73
2021/08/24 12:02:49;;;;;;;4.60;2.37;;;;;;;29.12;28.75;99378.90;1672199;83;21403;-74
2021/08/24 12:05:38;;;;;;;3.87;2.85;;;;;;;29.36;27.82;99380.07;1709324;83;21827;-74
2021/08/24 12:08:13;;;;;;;6.53;3.05;;;;;;;29.51;28.66;99386.28;1709822;83;20976;-73
2021/08/24 12:11:01;;;;;;;6.50;2.47;;;;;;;29.70;27.71;99375.24;1685453;83;20865;-74